Time;durP1;ratioP1;P1;durP2;ratioP2;P2;SDS_P1;SDS_P2;PMS_P1;PMS_P2;Temp;Humidity;BMP_temperature;BMP_pressure;BME280_temperature;BME280_humidity;BME280_pressure;Samples;Min_cycle;Max_cycle;Signal;HPM_P1;HPM_P2
2022/06/24 00:01:41;;;;;;;5.30;1.93;;;;;;;25.05;64.88;99692.19;4971019;28;20178;-71
2022/06/24 00:04:06;;;;;;;8.60;1.73;;;;;;;25.03;64.87;99680.25;4970821;28;20445;-71
2022/06/24 00:06:46;;;;;;;3.70;1.27;;;;;;;25.04;65.13;99681.88;4954725;28;20753;-72
2022/06/24 00:09:12;;;;;;;5.40;1.80;;;;;;;25.04;64.74;99681.06;4970122;28;20589;-71
2022/06/24 00:11:37;;;;;;;7.40;1.67;;;;;;;25.02;65.50;99681.50;4951701;28;21201;-71
2022/06/24 00:14:04;;;;;;;6.63;1.73;;;;;;;25.03;64.74;99677.38;4979781;28;20437;-72
2022/06/24 00:16:30;;;;;;;5.60;1.70;;;;;;;25.03;65.14;99682.34;4973524;28;20264;-71
2022/06/24 00:19:09;;;;;;;4.10;1.60;;;;;;;25.02;64.69;99669.13;4990219;28;20456;-72
2022/06/24 00:21:35;;;;;;;4.73;1.87;;;;;;;25.02;64.54;99669.97;4974962;28;20174;-71
2022/06/24 00:24:00;;;;;;;7.17;1.70;;;;;;;25.01;64.77;99662.56;4992446;28;20429;-72
2022/06/24 00:26:41;;;;;;;6.07;1.50;;;;;;;25.02;64.47;99658.41;4956802;28;20558;-71
2022/06/24 00:29:07;;;;;;;6.63;1.70;;;;;;;25.02;64.69;99654.69;4988194;28;20181;-72
2022/06/24 00:31:32;;;;;;;4.27;1.40;;;;;;;25.03;64.49;99653.47;4976186;28;21229;-72
2022/06/24 00:33:58;;;;;;;4.77;1.50;;;;;;;25.03;64.59;99671.59;4973889;28;20173;-72
2022/06/24 00:36:23;;;;;;;3.37;1.37;;;;;;;25.01;64.40;99668.34;4977138;28;20182;-71
2022/06/24 00:38:52;;;;;;;9.40;2.00;;;;;;;25.01;64.76;99679.06;4976510;28;20190;-72
2022/06/24 00:41:23;;;;;;;6.60;1.93;;;;;;;24.99;64.76;99690.25;4989303;28;20174;-71
2022/06/24 00:43:56;;;;;;;5.57;1.60;;;;;;;24.98;64.52;99689.41;4954609;28;20472;-72
2022/06/24 00:46:27;;;;;;;3.87;1.83;;;;;;;24.97;64.39;99696.47;4956552;28;20508;-72
2022/06/24 00:48:57;;;;;;;6.43;1.67;;;;;;;24.98;64.47;99698.09;4970755;28;20414;-71
2022/06/24 00:51:22;;;;;;;4.50;1.30;;;;;;;24.96;64.42;99694.84;4953587;28;20461;-72
2022/06/24 00:53:52;;;;;;;9.40;1.63;;;;;;;24.96;64.64;99682.44;4969586;28;20426;-72
2022/06/24 00:56:19;;;;;;;7.00;1.57;;;;;;;24.96;64.08;99691.13;4969845;28;20182;-71
2022/06/24 00:59:00;;;;;;;7.27;1.67;;;;;;;24.94;64.49;99682.88;4968898;28;20769;-71
2022/06/24 01:01:36;;;;;;;6.50;2.17;;;;;;;24.94;63.96;99700.22;4954515;28;20429;-72
2022/06/24 01:04:03;;;;;;;6.23;2.10;;;;;;;24.91;64.17;99709.78;4954761;28;20463;-72
2022/06/24 01:06:29;;;;;;;4.33;1.90;;;;;;;24.88;64.72;99716.41;4971775;28;20501;-71
2022/06/24 01:08:55;;;;;;;6.80;1.90;;;;;;;24.87;64.24;99720.56;4953184;28;20422;-72
2022/06/24 01:11:27;;;;;;;4.70;1.50;;;;;;;24.87;64.50;99720.56;4953686;28;20469;-72
2022/06/24 01:13:53;;;;;;;6.00;1.67;;;;;;;24.87;64.21;99713.97;4953834;28;20425;-71
2022/06/24 01:16:22;;;;;;;7.93;1.47;;;;;;;24.88;64.41;99716.41;4952538;28;20492;-71
2022/06/24 01:18:55;;;;;;;4.73;1.47;;;;;;;24.86;64.14;99713.16;4955095;28;20205;-71
2022/06/24 01:21:42;;;;;;;8.17;2.00;;;;;;;24.88;64.10;99713.53;4949305;28;20965;-71
2022/06/24 01:24:12;;;;;;;6.77;1.70;;;;;;;24.90;64.44;99702.38;4952105;28;20406;-72
2022/06/24 01:26:39;;;;;;;6.47;1.30;;;;;;;24.91;63.81;99698.22;4973869;28;20838;-73
2022/06/24 01:29:05;;;;;;;4.50;1.73;;;;;;;24.91;64.21;99697.41;4989393;28;20804;-72
2022/06/24 01:31:30;;;;;;;4.17;1.50;;;;;;;24.92;64.35;99693.25;4973958;28;20425;-71
2022/06/24 01:33:56;;;;;;;4.27;1.80;;;;;;;24.92;64.29;99687.47;4989877;28;20186;-73
2022/06/24 01:36:22;;;;;;;7.47;1.70;;;;;;;24.93;64.48;99703.56;4974011;28;20225;-71
2022/06/24 01:38:47;;;;;;;10.13;1.77;;;;;;;24.92;64.14;99699.84;4990752;28;20832;-72
2022/06/24 01:41:13;;;;;;;6.23;2.00;;;;;;;24.90;64.09;99701.53;4970710;28;20177;-71
2022/06/24 01:43:38;;;;;;;7.80;2.03;;;;;;;24.91;63.74;99708.94;4970500;28;20218;-71
2022/06/24 01:46:03;;;;;;;6.90;1.87;;;;;;;24.91;63.83;99709.78;4970376;28;20178;-72
2022/06/24 01:48:29;;;;;;;4.73;1.57;;;;;;;24.91;64.15;99706.88;4951603;28;20463;-72
2022/06/24 01:50:55;;;;;;;3.60;1.50;;;;;;;24.93;63.83;99706.44;4970359;28;20614;-72
2022/06/24 01:53:20;;;;;;;6.63;2.30;;;;;;;24.92;64.00;99708.50;4969305;28;20692;-71
2022/06/24 01:55:46;;;;;;;5.60;1.60;;;;;;;24.92;63.79;99699.84;4953206;28;20193;-72
2022/06/24 01:58:11;;;;;;;7.10;1.80;;;;;;;24.93;64.12;99692.00;4954617;28;20178;-72
2022/06/24 02:00:37;;;;;;;4.80;1.80;;;;;;;24.92;63.68;99691.19;4971877;28;20166;-73
2022/06/24 02:03:05;;;;;;;5.77;1.70;;;;;;;24.92;63.72;99687.47;4957671;28;20210;-71
2022/06/24 02:05:31;;;;;;;7.67;1.80;;;;;;;24.91;64.01;99678.00;4975389;28;20222;-71
2022/06/24 02:07:56;;;;;;;5.90;2.07;;;;;;;24.92;63.88;99670.97;4974940;28;21191;-71
2022/06/24 02:15:50;;;;;;;4.80;1.87;;;;;;;24.90;63.72;99661.94;4973537;28;20413;-71
2022/06/24 02:18:16;;;;;;;8.90;1.87;;;;;;;24.89;63.65;99659.47;4976572;28;20465;-71
2022/06/24 02:20:41;;;;;;;4.33;1.47;;;;;;;24.89;64.11;99657.41;4971685;28;20182;-72
2022/06/24 02:23:07;;;;;;;6.17;1.63;;;;;;;24.89;63.80;99654.50;4972227;28;20190;-71
2022/06/24 02:25:32;;;;;;;5.63;1.97;;;;;;;24.89;63.73;99653.72;4962232;28;20177;-71
2022/06/24 02:27:57;;;;;;;10.43;2.27;;;;;;;24.87;63.53;99662.81;4969607;28;20194;-72
2022/06/24 02:30:23;;;;;;;7.30;1.93;;;;;;;24.87;63.88;99668.59;4952376;28;20207;-71
2022/06/24 02:32:48;;;;;;;11.70;2.30;;;;;;;24.87;63.53;99671.47;4955933;28;20175;-72
2022/06/24 02:35:14;;;;;;;10.33;1.73;;;;;;;24.86;63.89;99674.78;4971401;28;20178;-71
2022/06/24 02:37:39;;;;;;;7.93;1.93;;;;;;;24.86;63.57;99666.13;4975705;28;20678;-71
2022/06/24 02:42:58;;;;;;;9.13;1.73;;;;;;;24.86;63.44;99645.91;4944433;29;20717;-71
2022/06/24 02:45:24;;;;;;;7.13;2.40;;;;;;;24.86;63.76;99640.97;4938550;29;20548;-72
2022/06/24 02:47:49;;;;;;;4.80;1.70;;;;;;;24.87;63.53;99644.66;4938920;28;20427;-71
2022/06/24 02:50:15;;;;;;;6.47;2.00;;;;;;;24.85;63.49;99635.63;4936834;29;20207;-72
2022/06/24 02:52:41;;;;;;;6.20;2.03;;;;;;;24.84;63.18;99634.78;4937540;29;20179;-71
2022/06/24 02:55:06;;;;;;;8.17;1.80;;;;;;;24.85;63.34;99624.06;4937661;29;20213;-71
2022/06/24 02:57:32;;;;;;;10.73;2.90;;;;;;;24.82;63.33;99628.66;4938296;29;20540;-71
2022/06/24 02:59:57;;;;;;;8.73;1.80;;;;;;;24.83;63.65;99615.84;4952760;29;20433;-71
2022/06/24 03:02:23;;;;;;;9.67;2.73;;;;;;;24.83;63.54;99621.63;4954592;29;20167;-72
2022/06/24 03:04:48;;;;;;;11.33;2.10;;;;;;;24.82;63.28;99610.50;4964173;28;20226;-71
2022/06/24 03:07:14;;;;;;;4.50;1.77;;;;;;;24.81;63.26;99623.31;4971493;28;20167;-71
2022/06/24 03:09:39;;;;;;;5.70;2.10;;;;;;;24.81;63.53;99612.59;4954647;28;20206;-72
2022/06/24 03:12:05;;;;;;;3.80;1.77;;;;;;;24.80;63.67;99613.84;4947552;28;20241;-72
2022/06/24 03:14:30;;;;;;;9.77;2.50;;;;;;;24.71;63.72;99619.38;4954245;28;20178;-71
2022/06/24 03:16:56;;;;;;;20.50;2.33;;;;;;;24.73;63.49;99611.06;4972967;28;20182;-72
2022/06/24 03:19:21;;;;;;;15.73;2.60;;;;;;;24.76;63.40;99607.31;4955943;28;20245;-71
2022/06/24 03:21:47;;;;;;;8.73;2.00;;;;;;;24.77;63.61;99611.00;4973629;28;20178;-71
2022/06/24 03:24:12;;;;;;;6.63;1.90;;;;;;;24.76;63.07;99601.53;4957203;28;20186;-72
2022/06/24 03:26:39;;;;;;;4.80;2.00;;;;;;;24.69;63.52;99597.97;4956549;28;20183;-72
2022/06/24 03:29:04;;;;;;;8.77;2.10;;;;;;;24.74;63.79;99595.38;4953773;28;20187;-71
2022/06/24 03:31:30;;;;;;;7.50;2.10;;;;;;;24.69;63.59;99592.19;4955808;28;20470;-73
2022/06/24 03:33:55;;;;;;;7.00;2.27;;;;;;;24.56;63.92;99594.88;4936097;29;20249;-72
2022/06/24 03:36:21;;;;;;;10.27;2.40;;;;;;;24.65;63.49;99597.22;4967354;28;20179;-72
2022/06/24 03:38:47;;;;;;;7.23;2.10;;;;;;;24.69;63.80;99600.84;4966418;28;20710;-72
2022/06/24 03:41:13;;;;;;;5.97;2.27;;;;;;;24.58;63.79;99592.38;4968034;28;20479;-71
2022/06/24 03:43:38;;;;;;;9.10;2.20;;;;;;;24.64;63.32;99610.03;4970922;28;20225;-71
2022/06/24 03:46:04;;;;;;;10.83;1.90;;;;;;;24.65;63.20;99600.94;4970434;28;20241;-71
2022/06/24 03:48:29;;;;;;;6.83;1.83;;;;;;;24.66;63.71;99598.84;4969948;28;20174;-72
2022/06/24 03:50:55;;;;;;;8.80;2.13;;;;;;;24.61;63.43;99610.88;4970764;28;20233;-71
2022/06/24 03:53:21;;;;;;;8.10;2.47;;;;;;;24.62;63.52;99618.28;4971494;28;20193;-71
2022/06/24 03:55:50;;;;;;;9.00;2.30;;;;;;;24.48;63.69;99639.53;4973140;28;20175;-72
2022/06/24 03:58:16;;;;;;;11.97;1.87;;;;;;;24.42;64.14;99647.03;4972780;28;20274;-72
2022/06/24 04:00:42;;;;;;;9.53;2.60;;;;;;;24.47;63.86;99642.84;4954794;28;20437;-72
2022/06/24 04:03:07;;;;;;;8.20;2.57;;;;;;;24.53;63.97;99636.13;4971213;28;20454;-71
2022/06/24 04:05:33;;;;;;;9.03;2.43;;;;;;;24.52;63.79;99642.34;4955378;28;20248;-72
2022/06/24 04:07:58;;;;;;;8.47;2.70;;;;;;;24.53;63.95;99641.91;4971444;28;20183;-71
2022/06/24 04:10:25;;;;;;;9.53;2.70;;;;;;;24.41;64.29;99639.66;4955324;28;20198;-71
2022/06/24 04:12:51;;;;;;;7.60;2.30;;;;;;;24.37;64.49;99646.72;4956367;28;20183;-72
2022/06/24 04:15:19;;;;;;;8.80;2.63;;;;;;;24.43;64.00;99645.78;4973666;28;20425;-71
2022/06/24 04:17:48;;;;;;;10.53;2.37;;;;;;;24.48;64.21;99638.72;4992161;28;20626;-72
2022/06/24 04:20:15;;;;;;;8.23;2.20;;;;;;;24.48;63.73;99639.53;4975732;28;20416;-72
2022/06/24 04:22:40;;;;;;;8.17;3.30;;;;;;;24.37;64.23;99630.22;4976566;28;20932;-71
2022/06/24 04:25:06;;;;;;;9.67;2.67;;;;;;;24.42;64.37;99640.44;4960161;28;20508;-71
2022/06/24 04:27:32;;;;;;;9.27;2.40;;;;;;;24.47;64.09;99637.06;4968095;28;20186;-72
2022/06/24 04:30:01;;;;;;;10.10;2.50;;;;;;;24.52;63.94;99630.78;4986940;28;20190;-72
2022/06/24 04:32:27;;;;;;;6.93;2.10;;;;;;;24.48;63.81;99627.97;4972092;28;20190;-71
2022/06/24 04:34:52;;;;;;;5.50;2.50;;;;;;;24.54;63.82;99623.34;4959718;28;20781;-71
2022/06/24 04:37:18;;;;;;;8.17;2.67;;;;;;;24.32;64.91;99624.94;4971625;28;20303;-72
2022/06/24 04:39:44;;;;;;;6.63;2.27;;;;;;;24.43;64.50;99624.78;4971226;28;20167;-71
2022/06/24 04:42:10;;;;;;;7.20;2.27;;;;;;;24.41;64.20;99625.22;4972645;28;20293;-71
2022/06/24 04:44:35;;;;;;;6.90;2.60;;;;;;;24.52;64.09;99622.97;4956526;28;20485;-71
2022/06/24 04:47:01;;;;;;;5.10;2.03;;;;;;;24.56;63.81;99626.63;4972867;28;20542;-72
2022/06/24 04:49:26;;;;;;;9.43;2.40;;;;;;;24.61;63.41;99631.09;4972260;28;20186;-72
2022/06/24 04:51:52;;;;;;;10.63;2.60;;;;;;;24.61;63.69;99622.44;4955547;28;20259;-72
2022/06/24 04:54:17;;;;;;;6.93;2.23;;;;;;;24.64;63.28;99625.25;4955954;28;20563;-72
2022/06/24 04:56:43;;;;;;;8.00;2.20;;;;;;;24.60;64.15;99638.13;4971633;28;20178;-71
2022/06/24 04:59:08;;;;;;;10.13;2.43;;;;;;;24.58;63.98;99620.41;4954846;28;20190;-72
2022/06/24 05:01:34;;;;;;;8.57;2.80;;;;;;;24.62;64.08;99624.88;4972699;28;20167;-71
2022/06/24 05:04:00;;;;;;;5.63;2.23;;;;;;;24.67;63.98;99633.06;4955551;28;20553;-71
2022/06/24 05:06:25;;;;;;;7.80;2.00;;;;;;;24.68;63.78;99634.69;4971318;28;20569;-71
2022/06/24 05:08:51;;;;;;;11.20;2.33;;;;;;;24.70;63.55;99635.06;4971515;28;20417;-71
2022/06/24 05:11:16;;;;;;;7.47;2.50;;;;;;;24.68;63.56;99631.00;4969783;28;20276;-71
2022/06/24 05:13:42;;;;;;;6.67;2.37;;;;;;;24.69;63.40;99627.63;4937756;28;20638;-71
2022/06/24 05:16:07;;;;;;;6.10;1.90;;;;;;;24.68;63.64;99634.69;4971805;28;20163;-72
2022/06/24 05:18:35;;;;;;;8.10;2.80;;;;;;;24.71;64.01;99636.69;4954133;28;20650;-71
2022/06/24 05:21:02;;;;;;;6.53;2.20;;;;;;;24.73;63.69;99630.50;4954872;28;20591;-71
2022/06/24 05:23:28;;;;;;;10.20;3.13;;;;;;;24.76;63.70;99629.59;4972234;28;20430;-71
2022/06/24 05:25:53;;;;;;;11.30;2.50;;;;;;;24.58;64.44;99629.06;4971237;28;20425;-72
2022/06/24 05:28:19;;;;;;;6.20;2.33;;;;;;;24.49;64.74;99635.38;4964254;28;20842;-72
2022/06/24 05:30:44;;;;;;;9.47;2.40;;;;;;;24.55;64.69;99629.94;4967363;28;20199;-71
2022/06/24 05:33:10;;;;;;;9.20;2.87;;;;;;;24.59;64.15;99631.53;4951069;28;20287;-71
2022/06/24 05:35:35;;;;;;;7.70;2.00;;;;;;;24.48;64.45;99641.59;4950488;28;20642;-72
2022/06/24 05:38:01;;;;;;;10.07;2.93;;;;;;;24.45;65.23;99631.75;4951137;28;20182;-72
2022/06/24 05:40:26;;;;;;;5.13;2.10;;;;;;;24.45;64.62;99633.81;4950831;29;20262;-72
2022/06/24 05:42:52;;;;;;;8.30;2.13;;;;;;;24.54;64.63;99629.09;4969384;28;20194;-71
2022/06/24 05:45:17;;;;;;;15.70;2.50;;;;;;;24.61;64.26;99634.81;4969811;28;20186;-71
2022/06/24 05:47:47;;;;;;;6.07;2.30;;;;;;;24.67;63.81;99630.16;4970051;28;20182;-72
2022/06/24 05:50:12;;;;;;;10.00;2.63;;;;;;;24.64;64.09;99633.13;4954138;28;20709;-72
2022/06/24 05:55:22;;;;;;;7.67;3.13;;;;;;;24.66;64.73;99630.59;4968917;28;20181;-72
2022/06/24 05:57:47;;;;;;;14.80;2.73;;;;;;;24.56;64.96;99628.69;4952573;28;20425;-71
2022/06/24 06:00:13;;;;;;;8.83;2.50;;;;;;;24.54;65.08;99620.44;4970395;28;20170;-71
2022/06/24 06:02:39;;;;;;;10.70;2.33;;;;;;;24.60;64.71;99617.94;4969725;28;20183;-72
2022/06/24 06:05:04;;;;;;;8.67;2.30;;;;;;;24.69;64.34;99621.06;4969435;28;20234;-71
2022/06/24 06:07:29;;;;;;;6.63;2.20;;;;;;;24.69;64.43;99626.84;4971790;28;20684;-71
2022/06/24 06:09:56;;;;;;;8.53;2.87;;;;;;;24.61;64.40;99620.38;4961778;28;20549;-71
2022/06/24 06:12:22;;;;;;;11.93;2.70;;;;;;;24.57;64.80;99622.47;4969911;28;20189;-72
2022/06/24 06:14:48;;;;;;;5.83;2.60;;;;;;;24.62;65.15;99627.78;4970126;28;20434;-71
2022/06/24 06:17:13;;;;;;;9.60;2.63;;;;;;;24.57;64.94;99619.59;4986743;28;20422;-72
2022/06/24 06:19:38;;;;;;;7.17;2.90;;;;;;;24.62;64.50;99629.84;4969484;28;20182;-71
2022/06/24 06:22:04;;;;;;;6.57;2.53;;;;;;;24.52;65.46;99630.78;4952362;28;20187;-71
2022/06/24 06:24:30;;;;;;;15.10;2.60;;;;;;;24.51;65.10;99629.16;4934975;29;20665;-72
2022/06/24 06:26:59;;;;;;;11.60;3.00;;;;;;;24.49;65.19;99635.38;4947782;28;20205;-72
2022/06/24 06:29:25;;;;;;;9.63;2.70;;;;;;;24.55;64.98;99636.53;4972809;28;20800;-72
2022/06/24 06:31:53;;;;;;;10.13;2.93;;;;;;;24.46;65.30;99639.16;4988727;28;20429;-71
2022/06/24 06:34:19;;;;;;;6.70;2.60;;;;;;;24.37;65.36;99643.81;4988234;28;20204;-71
2022/06/24 06:36:45;;;;;;;8.50;2.70;;;;;;;24.48;65.13;99636.63;4985982;28;20429;-71
2022/06/24 06:39:10;;;;;;;12.23;3.57;;;;;;;24.53;64.66;99646.88;4969225;28;20683;-71
2022/06/24 06:41:36;;;;;;;7.90;2.70;;;;;;;24.46;65.49;99638.31;4953586;28;20441;-71
2022/06/24 06:44:01;;;;;;;4.53;2.27;;;;;;;24.55;64.88;99639.44;4953474;28;20191;-73
2022/06/24 06:46:26;;;;;;;10.13;3.00;;;;;;;24.59;65.14;99645.97;4970483;28;20618;-71
2022/06/24 06:48:52;;;;;;;6.77;2.57;;;;;;;24.62;64.83;99639.31;4939883;29;20553;-71
2022/06/24 06:51:17;;;;;;;6.80;2.63;;;;;;;24.63;64.48;99640.94;4968099;28;20698;-71
2022/06/24 06:53:43;;;;;;;6.83;2.53;;;;;;;24.60;65.06;99635.25;4949373;28;20171;-71
2022/06/24 06:56:08;;;;;;;7.83;2.80;;;;;;;24.35;66.20;99640.56;4971776;28;20211;-71
2022/06/24 06:58:34;;;;;;;9.60;2.80;;;;;;;24.30;66.48;99644.78;4971255;28;20281;-71
2022/06/24 07:00:59;;;;;;;10.90;3.37;;;;;;;24.39;65.84;99647.91;4973285;28;20702;-71
2022/06/24 07:03:25;;;;;;;6.33;2.27;;;;;;;24.49;65.81;99646.91;4956708;28;20224;-71
2022/06/24 07:05:50;;;;;;;12.73;2.93;;;;;;;24.31;66.71;99646.41;4972902;28;20226;-72
2022/06/24 07:08:16;;;;;;;10.23;2.73;;;;;;;24.37;66.00;99649.59;4956650;28;20183;-72
2022/06/24 07:10:42;;;;;;;11.63;2.70;;;;;;;24.27;67.39;99648.53;4956106;28;20264;-71
2022/06/24 07:13:08;;;;;;;9.53;2.70;;;;;;;24.46;65.97;99647.81;4957410;28;20186;-71
2022/06/24 07:15:33;;;;;;;8.63;2.80;;;;;;;24.36;66.39;99648.81;4973318;28;20433;-72
2022/06/24 07:17:59;;;;;;;8.70;3.00;;;;;;;24.38;66.76;99646.28;4956205;28;20202;-72
2022/06/24 07:20:24;;;;;;;6.70;2.50;;;;;;;24.48;66.10;99642.41;4975851;28;20617;-71
2022/06/24 07:22:50;;;;;;;7.73;2.40;;;;;;;24.54;65.34;99642.75;4995437;28;20178;-72
2022/06/24 07:25:15;;;;;;;12.37;2.70;;;;;;;24.55;65.50;99633.66;4976146;28;20178;-72
2022/06/24 07:27:41;;;;;;;5.43;2.37;;;;;;;24.62;65.17;99636.44;4976874;28;20189;-71
2022/06/24 07:30:07;;;;;;;7.63;2.53;;;;;;;24.63;65.08;99635.19;4976055;28;20216;-71
2022/06/24 07:32:32;;;;;;;6.47;2.63;;;;;;;24.59;65.15;99634.41;4995866;28;20186;-71
2022/06/24 07:34:57;;;;;;;11.00;3.03;;;;;;;24.55;65.56;99645.19;4992221;28;20178;-71
2022/06/24 07:37:24;;;;;;;9.40;2.80;;;;;;;24.48;65.93;99644.50;4992116;28;20178;-72
2022/06/24 07:39:49;;;;;;;11.93;3.10;;;;;;;24.58;65.26;99644.34;4975936;28;20166;-72
2022/06/24 07:42:15;;;;;;;9.77;2.67;;;;;;;24.63;65.45;99640.16;4971413;28;20809;-72
2022/06/24 07:44:42;;;;;;;6.83;2.77;;;;;;;24.57;65.61;99633.19;4953441;29;20179;-71
2022/06/24 07:47:11;;;;;;;11.07;2.77;;;;;;;24.57;65.43;99630.31;4954551;28;20179;-71
2022/06/24 07:49:37;;;;;;;8.30;3.00;;;;;;;24.48;66.06;99630.06;4952077;29;20427;-71
2022/06/24 07:52:03;;;;;;;8.67;2.60;;;;;;;24.48;65.55;99630.88;4936763;29;20490;-71
2022/06/24 07:54:28;;;;;;;9.60;2.60;;;;;;;24.53;65.46;99620.91;4937197;29;20238;-71
2022/06/24 07:56:57;;;;;;;7.47;2.67;;;;;;;24.54;65.42;99623.34;4969980;28;20946;-71
2022/06/24 07:59:29;;;;;;;7.13;3.10;;;;;;;24.55;65.78;99619.22;4938934;28;20180;-71
2022/06/24 08:01:55;;;;;;;7.50;2.80;;;;;;;24.59;65.32;99616.28;4938036;28;20443;-71
2022/06/24 08:04:21;;;;;;;7.43;2.60;;;;;;;24.63;65.03;99617.84;4974611;28;20774;-71
2022/06/24 08:06:49;;;;;;;7.83;3.13;;;;;;;24.46;65.89;99618.97;4954213;28;20288;-71
2022/06/24 08:09:21;;;;;;;10.93;3.70;;;;;;;24.47;65.66;99611.91;4956200;28;20433;-71
2022/06/24 08:11:47;;;;;;;6.83;2.83;;;;;;;24.57;65.49;99605.16;4952779;28;20582;-71
2022/06/24 08:14:13;;;;;;;6.60;2.57;;;;;;;24.65;65.16;99597.22;4984892;28;20931;-71
2022/06/24 08:16:39;;;;;;;11.10;2.80;;;;;;;24.69;64.74;99593.00;4984282;28;20186;-72
2022/06/24 08:19:05;;;;;;;10.43;3.20;;;;;;;24.69;64.47;99590.09;4962444;28;20513;-71
2022/06/24 08:21:30;;;;;;;8.50;2.73;;;;;;;24.70;64.98;99597.53;4967998;28;20175;-72
2022/06/24 08:23:55;;;;;;;8.47;3.37;;;;;;;24.67;64.55;99597.56;4936498;29;20183;-72
2022/06/24 08:26:21;;;;;;;8.47;2.40;;;;;;;24.70;64.54;99591.75;4955381;28;20183;-71
2022/06/24 08:28:46;;;;;;;5.10;2.33;;;;;;;24.73;64.22;99576.44;4990191;28;20715;-71
2022/06/24 08:31:12;;;;;;;7.70;2.80;;;;;;;24.47;64.45;99585.94;4972527;28;20200;-71
2022/06/24 08:33:37;;;;;;;6.57;2.87;;;;;;;24.46;65.39;99586.38;4991939;28;20209;-72
2022/06/24 08:36:03;;;;;;;6.83;2.53;;;;;;;24.60;64.91;99574.63;4973917;28;20289;-72
2022/06/24 08:38:28;;;;;;;10.33;2.97;;;;;;;24.59;64.35;99576.69;4989460;28;20181;-72
2022/06/24 08:40:54;;;;;;;8.00;2.60;;;;;;;24.61;64.44;99568.41;4974414;28;20703;-72
2022/06/24 08:43:22;;;;;;;6.43;2.53;;;;;;;24.67;64.04;99569.53;4951954;28;20198;-71
2022/06/24 08:45:48;;;;;;;6.53;2.67;;;;;;;24.63;63.32;99571.66;4985242;28;20745;-73
2022/06/24 08:48:14;;;;;;;5.10;2.30;;;;;;;24.65;63.94;99557.63;4972189;28;20418;-71
2022/06/24 08:50:39;;;;;;;9.07;2.57;;;;;;;24.69;64.20;99567.00;4953880;28;20229;-72
2022/06/24 08:53:08;;;;;;;11.00;3.33;;;;;;;24.70;64.14;99574.44;4954176;28;20269;-72
2022/06/24 08:55:38;;;;;;;9.93;3.60;;;;;;;24.74;63.51;99572.28;4971638;28;20261;-71
2022/06/24 08:58:10;;;;;;;8.20;2.60;;;;;;;24.58;63.59;99569.28;4968245;28;20491;-71
2022/06/24 09:00:36;;;;;;;15.63;2.93;;;;;;;24.63;63.66;99565.91;4950536;28;20423;-71
2022/06/24 09:03:02;;;;;;;9.60;2.63;;;;;;;24.68;64.04;99562.50;4969703;28;20462;-72
2022/06/24 09:05:28;;;;;;;12.27;2.30;;;;;;;24.75;63.09;99568.16;4984051;28;20223;-72
2022/06/24 09:08:07;;;;;;;6.90;2.43;;;;;;;24.75;63.32;99556.63;4954264;29;20438;-71
2022/06/24 09:10:37;;;;;;;6.13;2.63;;;;;;;24.75;62.68;99556.63;4967314;28;20246;-72
2022/06/24 09:13:03;;;;;;;5.90;2.37;;;;;;;24.69;63.16;99558.34;4983635;28;20425;-71
2022/06/24 09:15:29;;;;;;;7.63;2.63;;;;;;;24.77;62.61;99570.59;4987654;28;20914;-72
2022/06/24 09:17:55;;;;;;;8.80;2.60;;;;;;;24.73;61.93;99570.66;4984681;28;20227;-72
2022/06/24 09:20:22;;;;;;;6.83;2.40;;;;;;;24.70;61.77;99570.72;4982963;28;20206;-72
2022/06/24 09:22:48;;;;;;;7.70;2.57;;;;;;;24.52;60.70;99568.13;4984559;28;20422;-72
2022/06/24 09:25:13;;;;;;;6.40;1.80;;;;;;;24.64;62.22;99567.53;4972358;28;20434;-71
2022/06/24 09:27:44;;;;;;;9.20;2.73;;;;;;;24.75;62.62;99570.22;4958590;28;20178;-72
2022/06/24 09:30:14;;;;;;;4.83;2.60;;;;;;;24.73;61.75;99570.66;4956000;28;20257;-72
2022/06/24 09:32:54;;;;;;;4.10;2.23;;;;;;;24.77;61.57;99571.41;4956409;28;20492;-71
2022/06/24 09:35:20;;;;;;;5.03;2.40;;;;;;;24.76;61.09;99569.78;4956377;28;20426;-72
2022/06/24 09:37:47;;;;;;;6.60;2.40;;;;;;;24.80;60.74;99567.66;4959792;28;20516;-73
2022/06/24 09:40:20;;;;;;;6.70;2.53;;;;;;;24.84;61.50;99568.38;4971457;28;20421;-71
2022/06/24 09:43:02;;;;;;;7.30;2.07;;;;;;;24.78;60.85;99566.47;4966816;28;20824;-72
2022/06/24 09:45:50;;;;;;;5.50;1.90;;;;;;;24.81;60.48;99563.50;4954057;28;20940;-72
2022/06/24 09:48:26;;;;;;;5.37;1.97;;;;;;;24.82;61.03;99570.06;4955785;28;20894;-72
2022/06/24 09:50:53;;;;;;;8.20;2.47;;;;;;;24.84;60.27;99573.34;4971859;28;20519;-71
2022/06/24 09:53:18;;;;;;;8.23;2.20;;;;;;;24.81;59.28;99557.72;4955103;28;20429;-71
2022/06/24 09:55:44;;;;;;;5.13;1.97;;;;;;;24.80;60.43;99564.78;4954669;28;20980;-71
2022/06/24 09:58:09;;;;;;;5.40;1.90;;;;;;;24.85;59.92;99567.16;4954680;28;20182;-71
2022/06/24 10:00:40;;;;;;;4.80;1.97;;;;;;;24.80;59.36;99563.94;4969177;28;20693;-71
2022/06/24 10:03:08;;;;;;;5.93;2.03;;;;;;;24.83;60.45;99563.88;4971396;28;20607;-72
2022/06/24 10:05:34;;;;;;;3.20;1.77;;;;;;;24.85;60.09;99555.59;4972814;28;21004;-73
2022/06/24 10:08:00;;;;;;;10.03;2.20;;;;;;;24.88;60.77;99556.78;4959755;28;20428;-72
2022/06/24 10:10:25;;;;;;;6.37;2.30;;;;;;;24.88;60.11;99566.25;4955810;28;20822;-72
2022/06/24 10:12:54;;;;;;;4.47;2.27;;;;;;;24.84;60.60;99561.81;4955004;28;20642;-73
2022/06/24 10:15:19;;;;;;;4.90;2.10;;;;;;;24.85;60.20;99554.75;4954053;28;20206;-70
2022/06/24 10:17:45;;;;;;;5.53;3.07;;;;;;;24.87;60.50;99558.00;4936496;28;20425;-71
2022/06/24 10:20:11;;;;;;;5.47;1.80;;;;;;;24.91;60.59;99558.78;4936134;28;20178;-71
2022/06/24 10:22:45;;;;;;;8.57;2.00;;;;;;;24.94;60.54;99558.69;4957386;28;20796;-71
2022/06/24 10:25:10;;;;;;;6.93;2.10;;;;;;;24.87;60.09;99561.72;4973765;28;20178;-72
2022/06/24 10:27:58;;;;;;;4.10;2.40;;;;;;;24.91;60.73;99570.31;4952523;28;20424;-71
2022/06/24 10:30:45;;;;;;;3.23;1.73;;;;;;;24.86;60.56;99576.59;5006719;28;20205;-71
2022/06/24 10:33:21;;;;;;;6.70;2.40;;;;;;;24.90;60.46;99571.59;4975000;28;20436;-71
2022/06/24 10:35:57;;;;;;;6.10;2.83;;;;;;;24.90;60.44;99563.75;4973160;28;20848;-71
2022/06/24 10:38:23;;;;;;;4.57;1.87;;;;;;;24.83;59.99;99555.19;4972632;28;20438;-72
2022/06/24 10:40:48;;;;;;;4.40;2.17;;;;;;;24.82;60.92;99558.53;4957019;28;20425;-71
2022/06/24 10:43:14;;;;;;;6.60;2.50;;;;;;;24.73;60.63;99550.44;4939140;29;20178;-71
2022/06/24 10:45:39;;;;;;;6.37;2.30;;;;;;;24.81;60.81;99546.19;4954277;29;20187;-71
2022/06/24 10:48:05;;;;;;;4.80;1.80;;;;;;;24.72;59.05;99543.03;4937401;29;20171;-72
2022/06/24 10:50:30;;;;;;;4.80;2.10;;;;;;;24.78;60.57;99543.38;4953470;29;20199;-72
2022/06/24 10:53:02;;;;;;;4.40;1.80;;;;;;;24.78;60.95;99538.38;4937716;29;20179;-71
2022/06/24 10:55:32;;;;;;;3.30;1.63;;;;;;;24.73;58.51;99536.00;4936930;29;20187;-72
2022/06/24 10:58:04;;;;;;;6.57;1.90;;;;;;;24.68;60.00;99532.84;4936354;29;20454;-71
2022/06/24 11:00:43;;;;;;;5.50;1.93;;;;;;;24.74;60.00;99525.28;4952492;29;20458;-72
2022/06/24 11:03:08;;;;;;;4.37;2.30;;;;;;;24.81;60.57;99534.63;4973584;28;20498;-71
2022/06/24 11:05:40;;;;;;;6.13;1.90;;;;;;;24.81;60.32;99531.75;4974062;28;20868;-71
2022/06/24 11:08:16;;;;;;;5.70;1.73;;;;;;;24.86;59.73;99533.28;4956790;28;20182;-71
2022/06/24 11:10:42;;;;;;;7.23;1.83;;;;;;;24.86;59.37;99531.22;4957573;28;20455;-72
2022/06/24 11:13:26;;;;;;;3.70;1.90;;;;;;;24.89;59.25;99524.56;4953456;28;20968;-73
2022/06/24 11:15:58;;;;;;;3.40;2.03;;;;;;;24.89;59.42;99523.75;4955767;28;20661;-73
2022/06/24 11:18:27;;;;;;;3.80;1.83;;;;;;;24.88;59.06;99525.81;4937704;29;20427;-71
2022/06/24 11:20:55;;;;;;;3.77;2.00;;;;;;;24.89;58.67;99527.44;4952747;29;20973;-71
2022/06/24 11:23:22;;;;;;;4.13;2.10;;;;;;;24.90;58.43;99529.09;4944610;28;20465;-71
2022/06/24 11:26:06;;;;;;;6.90;2.40;;;;;;;24.88;58.42;99531.59;4956111;28;20425;-71
2022/06/24 11:28:33;;;;;;;2.57;1.70;;;;;;;24.85;58.66;99526.72;4972354;28;20422;-72
2022/06/24 11:31:21;;;;;;;4.07;1.70;;;;;;;24.84;58.82;99536.63;4956196;28;20458;-72
2022/06/24 11:33:48;;;;;;;6.03;2.10;;;;;;;24.86;59.28;99534.13;4972546;28;20433;-71
2022/06/24 11:36:14;;;;;;;4.00;2.17;;;;;;;24.83;58.10;99535.00;4955698;28;20421;-72
2022/06/24 11:38:52;;;;;;;6.03;2.00;;;;;;;24.83;58.42;99531.31;4956638;28;20793;-72
2022/06/24 11:41:22;;;;;;;7.77;2.10;;;;;;;24.88;58.95;99540.25;4988240;28;20418;-71
2022/06/24 11:43:51;;;;;;;5.10;1.80;;;;;;;24.89;58.89;99527.44;4970937;28;20936;-72